Terminal Aerodrome Forecast
Issued by NWS Pueblo, CO

Home | Current Version | Previous Version | Text Only | Print | Product List | Glossary On
Versions: 1 2 3 4 5 6 7 8 9 10 11 12 13 14 15 16 17 18 19 20 21 22 23 24 25 26 27 28 29 30 31
000
FTUS45 KPUB 261509 AAB
TAFALS
TAF AMD
KALS 261509Z 2615/2712 13009KT 6SM -SN BR OVC035
      TEMPO 2615/2619 2SM -SN BKN012
     FM270200 VRB04KT P6SM VCSH BKN025
     FM270800 VRB04KT P6SM SCT010 SCT050=

USA.gov is the U.S. government's official web portal to all federal, state and local government web resources and services.